sensor_id;sensor_type;location;lat;lon;timestamp;P1;durP1;ratioP1;P2;durP2;ratioP2
20828;SDS011;10575;50.124;8.582;2023-04-03T00:02:23;3.50;;;1.80;;
20828;SDS011;10575;50.124;8.582;2023-04-03T00:04:49;4.30;;;1.55;;
20828;SDS011;10575;50.124;8.582;2023-04-03T00:07:15;4.28;;;2.05;;
20828;SDS011;10575;50.124;8.582;2023-04-03T00:09:40;3.67;;;2.20;;
20828;SDS011;10575;50.124;8.582;2023-04-03T00:12:06;3.97;;;1.85;;
20828;SDS011;10575;50.124;8.582;2023-04-03T00:14:31;4.57;;;1.70;;
20828;SDS011;10575;50.124;8.582;2023-04-03T00:16:57;4.82;;;1.85;;
20828;SDS011;10575;50.124;8.582;2023-04-03T00:19:22;2.65;;;1.40;;
20828;SDS011;10575;50.124;8.582;2023-04-03T00:21:48;3.85;;;1.77;;
20828;SDS011;10575;50.124;8.582;2023-04-03T00:24:13;3.97;;;1.80;;
20828;SDS011;10575;50.124;8.582;2023-04-03T00:26:39;2.72;;;1.40;;
20828;SDS011;10575;50.124;8.582;2023-04-03T00:29:05;6.25;;;1.98;;
20828;SDS011;10575;50.124;8.582;2023-04-03T00:31:30;2.97;;;1.80;;
20828;SDS011;10575;50.124;8.582;2023-04-03T00:33:55;4.13;;;1.60;;
20828;SDS011;10575;50.124;8.582;2023-04-03T00:36:21;2.65;;;1.70;;
20828;SDS011;10575;50.124;8.582;2023-04-03T00:38:46;6.10;;;1.80;;
20828;SDS011;10575;50.124;8.582;2023-04-03T00:41:12;3.33;;;1.67;;
20828;SDS011;10575;50.124;8.582;2023-04-03T00:43:38;4.03;;;1.90;;
20828;SDS011;10575;50.124;8.582;2023-04-03T00:46:03;5.53;;;1.45;;
20828;SDS011;10575;50.124;8.582;2023-04-03T00:48:31;3.55;;;1.92;;
20828;SDS011;10575;50.124;8.582;2023-04-03T00:51:09;6.53;;;1.80;;
20828;SDS011;10575;50.124;8.582;2023-04-03T00:53:40;5.03;;;1.67;;
20828;SDS011;10575;50.124;8.582;2023-04-03T00:56:12;4.10;;;1.73;;
20828;SDS011;10575;50.124;8.582;2023-04-03T00:58:41;4.00;;;1.60;;
20828;SDS011;10575;50.124;8.582;2023-04-03T01:01:28;2.97;;;1.67;;
20828;SDS011;10575;50.124;8.582;2023-04-03T01:03:55;5.50;;;2.00;;
20828;SDS011;10575;50.124;8.582;2023-04-03T01:06:23;7.15;;;1.88;;
20828;SDS011;10575;50.124;8.582;2023-04-03T01:08:57;5.72;;;1.83;;
20828;SDS011;10575;50.124;8.582;2023-04-03T01:11:23;6.43;;;2.05;;
20828;SDS011;10575;50.124;8.582;2023-04-03T01:13:48;3.88;;;2.03;;
20828;SDS011;10575;50.124;8.582;2023-04-03T01:16:14;2.92;;;1.73;;
20828;SDS011;10575;50.124;8.582;2023-04-03T01:18:40;5.20;;;1.80;;
20828;SDS011;10575;50.124;8.582;2023-04-03T01:23:44;3.65;;;1.73;;
20828;SDS011;10575;50.124;8.582;2023-04-03T01:26:24;3.35;;;1.90;;
20828;SDS011;10575;50.124;8.582;2023-04-03T01:28:50;7.00;;;2.60;;
20828;SDS011;10575;50.124;8.582;2023-04-03T01:31:26;5.03;;;2.15;;
20828;SDS011;10575;50.124;8.582;2023-04-03T01:33:56;4.90;;;1.88;;
20828;SDS011;10575;50.124;8.582;2023-04-03T01:36:23;5.88;;;1.75;;
20828;SDS011;10575;50.124;8.582;2023-04-03T01:38:51;5.47;;;2.30;;
20828;SDS011;10575;50.124;8.582;2023-04-03T01:41:17;5.50;;;1.83;;
20828;SDS011;10575;50.124;8.582;2023-04-03T01:43:45;3.22;;;1.75;;
20828;SDS011;10575;50.124;8.582;2023-04-03T01:46:11;6.55;;;2.15;;
20828;SDS011;10575;50.124;8.582;2023-04-03T01:48:37;5.45;;;2.17;;
20828;SDS011;10575;50.124;8.582;2023-04-03T01:51:03;4.00;;;2.20;;
20828;SDS011;10575;50.124;8.582;2023-04-03T01:53:28;4.68;;;1.92;;
20828;SDS011;10575;50.124;8.582;2023-04-03T01:55:54;4.05;;;1.92;;
20828;SDS011;10575;50.124;8.582;2023-04-03T01:58:19;4.47;;;2.20;;
20828;SDS011;10575;50.124;8.582;2023-04-03T02:00:45;4.72;;;1.90;;
20828;SDS011;10575;50.124;8.582;2023-04-03T02:03:11;5.88;;;2.13;;
20828;SDS011;10575;50.124;8.582;2023-04-03T02:05:36;4.90;;;2.10;;
20828;SDS011;10575;50.124;8.582;2023-04-03T02:08:02;3.90;;;1.80;;
20828;SDS011;10575;50.124;8.582;2023-04-03T02:10:28;5.43;;;2.17;;
20828;SDS011;10575;50.124;8.582;2023-04-03T02:12:54;4.18;;;1.83;;
20828;SDS011;10575;50.124;8.582;2023-04-03T02:15:19;7.10;;;2.25;;
20828;SDS011;10575;50.124;8.582;2023-04-03T02:17:45;4.13;;;1.65;;
20828;SDS011;10575;50.124;8.582;2023-04-03T02:20:11;6.75;;;2.20;;
20828;SDS011;10575;50.124;8.582;2023-04-03T02:22:36;3.25;;;2.17;;
20828;SDS011;10575;50.124;8.582;2023-04-03T02:25:02;2.50;;;1.65;;
20828;SDS011;10575;50.124;8.582;2023-04-03T02:27:28;6.78;;;1.95;;
20828;SDS011;10575;50.124;8.582;2023-04-03T02:29:53;2.88;;;2.00;;
20828;SDS011;10575;50.124;8.582;2023-04-03T02:32:19;3.50;;;2.03;;
20828;SDS011;10575;50.124;8.582;2023-04-03T02:34:44;5.85;;;1.90;;
20828;SDS011;10575;50.124;8.582;2023-04-03T02:37:10;6.10;;;1.92;;
20828;SDS011;10575;50.124;8.582;2023-04-03T02:39:35;6.22;;;1.88;;
20828;SDS011;10575;50.124;8.582;2023-04-03T02:42:01;7.90;;;2.05;;
20828;SDS011;10575;50.124;8.582;2023-04-03T02:44:27;5.45;;;1.90;;
20828;SDS011;10575;50.124;8.582;2023-04-03T02:46:52;5.68;;;2.05;;
20828;SDS011;10575;50.124;8.582;2023-04-03T02:49:18;7.43;;;2.30;;
20828;SDS011;10575;50.124;8.582;2023-04-03T02:51:43;7.68;;;2.03;;
20828;SDS011;10575;50.124;8.582;2023-04-03T02:54:09;4.00;;;1.95;;
20828;SDS011;10575;50.124;8.582;2023-04-03T02:56:34;6.95;;;2.65;;
20828;SDS011;10575;50.124;8.582;2023-04-03T02:59:00;5.68;;;1.98;;
20828;SDS011;10575;50.124;8.582;2023-04-03T03:01:25;3.78;;;1.83;;
20828;SDS011;10575;50.124;8.582;2023-04-03T03:03:53;3.53;;;1.80;;
20828;SDS011;10575;50.124;8.582;2023-04-03T03:06:19;5.93;;;2.15;;
20828;SDS011;10575;50.124;8.582;2023-04-03T03:08:44;4.65;;;1.75;;
20828;SDS011;10575;50.124;8.582;2023-04-03T03:11:10;5.15;;;1.95;;
20828;SDS011;10575;50.124;8.582;2023-04-03T03:13:36;5.35;;;1.90;;
20828;SDS011;10575;50.124;8.582;2023-04-03T03:16:02;3.67;;;1.67;;
20828;SDS011;10575;50.124;8.582;2023-04-03T03:18:27;5.53;;;1.75;;
20828;SDS011;10575;50.124;8.582;2023-04-03T03:20:57;10.02;;;2.47;;
20828;SDS011;10575;50.124;8.582;2023-04-03T03:23:24;4.63;;;1.63;;
20828;SDS011;10575;50.124;8.582;2023-04-03T03:25:58;3.17;;;1.60;;
20828;SDS011;10575;50.124;8.582;2023-04-03T03:28:26;5.53;;;1.40;;
20828;SDS011;10575;50.124;8.582;2023-04-03T03:30:52;4.03;;;1.20;;
20828;SDS011;10575;50.124;8.582;2023-04-03T03:33:17;3.42;;;1.33;;
20828;SDS011;10575;50.124;8.582;2023-04-03T03:35:43;5.55;;;1.70;;
20828;SDS011;10575;50.124;8.582;2023-04-03T03:38:09;6.10;;;1.40;;
20828;SDS011;10575;50.124;8.582;2023-04-03T03:40:34;3.33;;;1.45;;
20828;SDS011;10575;50.124;8.582;2023-04-03T03:43:00;4.63;;;1.67;;
20828;SDS011;10575;50.124;8.582;2023-04-03T03:45:26;8.25;;;1.80;;
20828;SDS011;10575;50.124;8.582;2023-04-03T03:47:51;6.43;;;1.70;;
20828;SDS011;10575;50.124;8.582;2023-04-03T03:50:17;5.85;;;1.70;;
20828;SDS011;10575;50.124;8.582;2023-04-03T03:52:42;4.88;;;1.67;;
20828;SDS011;10575;50.124;8.582;2023-04-03T03:55:08;7.38;;;1.65;;
20828;SDS011;10575;50.124;8.582;2023-04-03T03:57:34;4.93;;;1.50;;
20828;SDS011;10575;50.124;8.582;2023-04-03T04:00:00;3.85;;;1.30;;
20828;SDS011;10575;50.124;8.582;2023-04-03T04:02:25;7.60;;;1.80;;
20828;SDS011;10575;50.124;8.582;2023-04-03T04:04:51;3.72;;;1.42;;
20828;SDS011;10575;50.124;8.582;2023-04-03T04:07:16;4.30;;;1.63;;
20828;SDS011;10575;50.124;8.582;2023-04-03T04:09:42;6.90;;;1.92;;
20828;SDS011;10575;50.124;8.582;2023-04-03T04:12:07;7.97;;;1.85;;
20828;SDS011;10575;50.124;8.582;2023-04-03T04:14:33;4.38;;;1.45;;
20828;SDS011;10575;50.124;8.582;2023-04-03T04:16:58;5.38;;;1.60;;
20828;SDS011;10575;50.124;8.582;2023-04-03T04:19:24;7.55;;;1.90;;
20828;SDS011;10575;50.124;8.582;2023-04-03T04:21:49;6.32;;;2.20;;
20828;SDS011;10575;50.124;8.582;2023-04-03T04:24:15;4.00;;;1.52;;
20828;SDS011;10575;50.124;8.582;2023-04-03T04:26:40;5.65;;;1.55;;
20828;SDS011;10575;50.124;8.582;2023-04-03T04:29:06;4.45;;;1.58;;
20828;SDS011;10575;50.124;8.582;2023-04-03T04:31:33;9.68;;;1.90;;
20828;SDS011;10575;50.124;8.582;2023-04-03T04:33:58;7.07;;;2.38;;
20828;SDS011;10575;50.124;8.582;2023-04-03T04:36:24;6.13;;;1.83;;
20828;SDS011;10575;50.124;8.582;2023-04-03T04:38:49;6.45;;;1.90;;
20828;SDS011;10575;50.124;8.582;2023-04-03T04:41:17;6.38;;;1.60;;
20828;SDS011;10575;50.124;8.582;2023-04-03T04:43:47;4.22;;;1.55;;
20828;SDS011;10575;50.124;8.582;2023-04-03T04:46:13;4.95;;;1.52;;
20828;SDS011;10575;50.124;8.582;2023-04-03T04:48:38;5.85;;;1.60;;
20828;SDS011;10575;50.124;8.582;2023-04-03T04:51:05;7.97;;;2.22;;
20828;SDS011;10575;50.124;8.582;2023-04-03T04:53:31;3.92;;;1.63;;
20828;SDS011;10575;50.124;8.582;2023-04-03T04:55:56;5.00;;;1.98;;
20828;SDS011;10575;50.124;8.582;2023-04-03T04:58:22;7.80;;;1.98;;
20828;SDS011;10575;50.124;8.582;2023-04-03T05:00:47;6.88;;;2.45;;
20828;SDS011;10575;50.124;8.582;2023-04-03T05:03:13;7.95;;;2.05;;
20828;SDS011;10575;50.124;8.582;2023-04-03T05:05:39;8.65;;;2.08;;
20828;SDS011;10575;50.124;8.582;2023-04-03T05:08:05;7.50;;;2.53;;
20828;SDS011;10575;50.124;8.582;2023-04-03T05:10:31;7.32;;;2.10;;
20828;SDS011;10575;50.124;8.582;2023-04-03T05:12:57;8.57;;;2.17;;
20828;SDS011;10575;50.124;8.582;2023-04-03T05:15:23;6.32;;;1.98;;
20828;SDS011;10575;50.124;8.582;2023-04-03T05:17:48;7.07;;;2.22;;
20828;SDS011;10575;50.124;8.582;2023-04-03T05:20:15;5.80;;;1.73;;
20828;SDS011;10575;50.124;8.582;2023-04-03T05:22:41;5.10;;;2.00;;
20828;SDS011;10575;50.124;8.582;2023-04-03T05:25:06;7.85;;;2.20;;
20828;SDS011;10575;50.124;8.582;2023-04-03T05:27:32;7.80;;;1.98;;
20828;SDS011;10575;50.124;8.582;2023-04-03T05:29:57;7.13;;;2.38;;
20828;SDS011;10575;50.124;8.582;2023-04-03T05:32:24;6.80;;;2.20;;
20828;SDS011;10575;50.124;8.582;2023-04-03T05:34:52;7.70;;;2.35;;
20828;SDS011;10575;50.124;8.582;2023-04-03T05:37:18;8.23;;;2.10;;
20828;SDS011;10575;50.124;8.582;2023-04-03T05:39:43;8.48;;;2.20;;
20828;SDS011;10575;50.124;8.582;2023-04-03T05:42:09;7.43;;;2.58;;
20828;SDS011;10575;50.124;8.582;2023-04-03T05:44:36;6.55;;;2.50;;
20828;SDS011;10575;50.124;8.582;2023-04-03T05:47:02;5.95;;;2.25;;
20828;SDS011;10575;50.124;8.582;2023-04-03T05:49:27;8.70;;;2.42;;
20828;SDS011;10575;50.124;8.582;2023-04-03T05:51:53;8.50;;;2.75;;
20828;SDS011;10575;50.124;8.582;2023-04-03T05:54:20;8.60;;;2.40;;
20828;SDS011;10575;50.124;8.582;2023-04-03T05:56:49;6.13;;;2.00;;
20828;SDS011;10575;50.124;8.582;2023-04-03T05:59:15;5.97;;;1.88;;
20828;SDS011;10575;50.124;8.582;2023-04-03T06:01:41;7.30;;;2.20;;
20828;SDS011;10575;50.124;8.582;2023-04-03T06:04:07;8.75;;;2.13;;
20828;SDS011;10575;50.124;8.582;2023-04-03T06:06:44;6.78;;;2.45;;
20828;SDS011;10575;50.124;8.582;2023-04-03T06:09:10;8.82;;;2.22;;
20828;SDS011;10575;50.124;8.582;2023-04-03T06:11:36;6.53;;;1.90;;
20828;SDS011;10575;50.124;8.582;2023-04-03T06:14:01;7.68;;;2.30;;
20828;SDS011;10575;50.124;8.582;2023-04-03T06:16:28;6.72;;;1.92;;
20828;SDS011;10575;50.124;8.582;2023-04-03T06:18:53;4.88;;;2.08;;
20828;SDS011;10575;50.124;8.582;2023-04-03T06:21:20;4.43;;;2.22;;
20828;SDS011;10575;50.124;8.582;2023-04-03T06:23:45;6.25;;;2.20;;
20828;SDS011;10575;50.124;8.582;2023-04-03T06:26:11;7.95;;;2.35;;
20828;SDS011;10575;50.124;8.582;2023-04-03T06:28:36;6.57;;;2.63;;
20828;SDS011;10575;50.124;8.582;2023-04-03T06:31:02;9.32;;;2.10;;
20828;SDS011;10575;50.124;8.582;2023-04-03T06:33:27;4.95;;;2.10;;
20828;SDS011;10575;50.124;8.582;2023-04-03T06:35:57;5.75;;;2.28;;
20828;SDS011;10575;50.124;8.582;2023-04-03T06:38:23;5.07;;;2.15;;
20828;SDS011;10575;50.124;8.582;2023-04-03T06:40:48;5.68;;;2.17;;
20828;SDS011;10575;50.124;8.582;2023-04-03T06:43:14;5.88;;;2.10;;
20828;SDS011;10575;50.124;8.582;2023-04-03T06:45:39;6.20;;;2.75;;
20828;SDS011;10575;50.124;8.582;2023-04-03T06:48:05;6.85;;;1.98;;
20828;SDS011;10575;50.124;8.582;2023-04-03T06:50:31;8.07;;;2.40;;
20828;SDS011;10575;50.124;8.582;2023-04-03T06:52:56;4.40;;;1.83;;
20828;SDS011;10575;50.124;8.582;2023-04-03T06:55:22;7.97;;;2.78;;
20828;SDS011;10575;50.124;8.582;2023-04-03T06:57:47;8.43;;;2.30;;
20828;SDS011;10575;50.124;8.582;2023-04-03T07:00:13;6.28;;;2.90;;
20828;SDS011;10575;50.124;8.582;2023-04-03T07:02:39;4.82;;;2.30;;
20828;SDS011;10575;50.124;8.582;2023-04-03T07:05:05;8.80;;;2.10;;
20828;SDS011;10575;50.124;8.582;2023-04-03T07:07:31;6.80;;;2.13;;
20828;SDS011;10575;50.124;8.582;2023-04-03T07:09:58;8.55;;;2.67;;
20828;SDS011;10575;50.124;8.582;2023-04-03T07:12:24;5.10;;;1.83;;
20828;SDS011;10575;50.124;8.582;2023-04-03T07:14:50;6.22;;;2.47;;
20828;SDS011;10575;50.124;8.582;2023-04-03T07:17:15;14.48;;;2.95;;
20828;SDS011;10575;50.124;8.582;2023-04-03T07:19:41;5.30;;;2.65;;
20828;SDS011;10575;50.124;8.582;2023-04-03T07:22:06;5.22;;;2.63;;
20828;SDS011;10575;50.124;8.582;2023-04-03T07:24:32;4.50;;;2.22;;
20828;SDS011;10575;50.124;8.582;2023-04-03T07:26:58;5.78;;;1.85;;
20828;SDS011;10575;50.124;8.582;2023-04-03T07:29:23;6.00;;;2.55;;
20828;SDS011;10575;50.124;8.582;2023-04-03T07:31:49;10.18;;;3.05;;
20828;SDS011;10575;50.124;8.582;2023-04-03T07:34:15;4.03;;;2.60;;
20828;SDS011;10575;50.124;8.582;2023-04-03T07:36:40;4.95;;;2.40;;
20828;SDS011;10575;50.124;8.582;2023-04-03T07:39:06;7.10;;;2.08;;
20828;SDS011;10575;50.124;8.582;2023-04-03T07:41:33;12.10;;;2.60;;
20828;SDS011;10575;50.124;8.582;2023-04-03T07:43:58;6.90;;;2.13;;
20828;SDS011;10575;50.124;8.582;2023-04-03T07:46:24;6.57;;;2.60;;
20828;SDS011;10575;50.124;8.582;2023-04-03T07:48:49;7.43;;;2.22;;
20828;SDS011;10575;50.124;8.582;2023-04-03T07:51:15;5.50;;;2.20;;
20828;SDS011;10575;50.124;8.582;2023-04-03T07:53:41;8.80;;;3.13;;
20828;SDS011;10575;50.124;8.582;2023-04-03T07:56:06;7.68;;;2.53;;
20828;SDS011;10575;50.124;8.582;2023-04-03T07:58:32;6.05;;;2.33;;
20828;SDS011;10575;50.124;8.582;2023-04-03T08:00:58;5.60;;;3.15;;
20828;SDS011;10575;50.124;8.582;2023-04-03T08:03:24;6.85;;;2.40;;
20828;SDS011;10575;50.124;8.582;2023-04-03T08:05:50;7.15;;;2.33;;
20828;SDS011;10575;50.124;8.582;2023-04-03T08:08:17;6.97;;;2.80;;
20828;SDS011;10575;50.124;8.582;2023-04-03T08:10:47;4.78;;;2.00;;
20828;SDS011;10575;50.124;8.582;2023-04-03T08:13:15;6.45;;;2.20;;
20828;SDS011;10575;50.124;8.582;2023-04-03T08:15:40;4.38;;;2.05;;
20828;SDS011;10575;50.124;8.582;2023-04-03T08:18:06;5.28;;;2.17;;
20828;SDS011;10575;50.124;8.582;2023-04-03T08:20:31;10.10;;;2.65;;
20828;SDS011;10575;50.124;8.582;2023-04-03T08:22:57;4.30;;;2.13;;
20828;SDS011;10575;50.124;8.582;2023-04-03T08:25:22;3.95;;;2.17;;
20828;SDS011;10575;50.124;8.582;2023-04-03T08:27:48;4.65;;;2.47;;
20828;SDS011;10575;50.124;8.582;2023-04-03T08:30:14;5.13;;;2.33;;
20828;SDS011;10575;50.124;8.582;2023-04-03T08:32:39;5.60;;;2.13;;
20828;SDS011;10575;50.124;8.582;2023-04-03T08:35:07;7.47;;;2.22;;
20828;SDS011;10575;50.124;8.582;2023-04-03T08:37:34;4.85;;;2.22;;
20828;SDS011;10575;50.124;8.582;2023-04-03T08:40:02;7.28;;;2.10;;
20828;SDS011;10575;50.124;8.582;2023-04-03T08:42:35;6.93;;;2.30;;
20828;SDS011;10575;50.124;8.582;2023-04-03T08:47:52;6.20;;;1.88;;
20828;SDS011;10575;50.124;8.582;2023-04-03T08:50:47;4.32;;;1.65;;
20828;SDS011;10575;50.124;8.582;2023-04-03T08:53:22;6.07;;;1.80;;
20828;SDS011;10575;50.124;8.582;2023-04-03T08:55:56;4.53;;;2.00;;
20828;SDS011;10575;50.124;8.582;2023-04-03T08:58:26;5.85;;;1.90;;
20828;SDS011;10575;50.124;8.582;2023-04-03T09:01:21;4.90;;;2.17;;
20828;SDS011;10575;50.124;8.582;2023-04-03T09:03:51;4.88;;;2.53;;
20828;SDS011;10575;50.124;8.582;2023-04-03T09:06:25;4.85;;;2.40;;
20828;SDS011;10575;50.124;8.582;2023-04-03T09:09:02;5.07;;;1.95;;
20828;SDS011;10575;50.124;8.582;2023-04-03T09:12:12;6.80;;;1.95;;
20828;SDS011;10575;50.124;8.582;2023-04-03T09:23:28;4.18;;;2.40;;
20828;SDS011;10575;50.124;8.582;2023-04-03T09:26:02;4.57;;;2.22;;
20828;SDS011;10575;50.124;8.582;2023-04-03T09:28:35;4.53;;;2.13;;
20828;SDS011;10575;50.124;8.582;2023-04-03T09:31:11;6.22;;;2.25;;
20828;SDS011;10575;50.124;8.582;2023-04-03T09:33:50;4.65;;;2.05;;
20828;SDS011;10575;50.124;8.582;2023-04-03T09:36:43;4.47;;;2.45;;
20828;SDS011;10575;50.124;8.582;2023-04-03T09:39:16;11.88;;;2.40;;
20828;SDS011;10575;50.124;8.582;2023-04-03T09:41:54;4.50;;;2.05;;
20828;SDS011;10575;50.124;8.582;2023-04-03T09:44:32;7.50;;;2.60;;
20828;SDS011;10575;50.124;8.582;2023-04-03T09:47:16;8.25;;;2.40;;
20828;SDS011;10575;50.124;8.582;2023-04-03T09:49:44;4.50;;;2.58;;
20828;SDS011;10575;50.124;8.582;2023-04-03T09:52:23;7.68;;;2.60;;
20828;SDS011;10575;50.124;8.582;2023-04-03T09:54:50;5.25;;;2.40;;
20828;SDS011;10575;50.124;8.582;2023-04-03T09:57:16;3.72;;;2.30;;
20828;SDS011;10575;50.124;8.582;2023-04-03T09:59:46;6.72;;;2.40;;
20828;SDS011;10575;50.124;8.582;2023-04-03T10:02:28;6.80;;;3.10;;
20828;SDS011;10575;50.124;8.582;2023-04-03T10:05:02;5.70;;;2.20;;
20828;SDS011;10575;50.124;8.582;2023-04-03T10:07:37;5.28;;;2.97;;
20828;SDS011;10575;50.124;8.582;2023-04-03T10:10:15;4.85;;;3.08;;
20828;SDS011;10575;50.124;8.582;2023-04-03T10:12:47;7.80;;;3.58;;
20828;SDS011;10575;50.124;8.582;2023-04-03T10:15:15;5.53;;;2.40;;
20828;SDS011;10575;50.124;8.582;2023-04-03T10:20:16;4.72;;;2.70;;
20828;SDS011;10575;50.124;8.582;2023-04-03T10:28:11;3.95;;;2.72;;
20828;SDS011;10575;50.124;8.582;2023-04-03T10:30:56;5.32;;;2.78;;
20828;SDS011;10575;50.124;8.582;2023-04-03T10:33:47;4.47;;;2.55;;
20828;SDS011;10575;50.124;8.582;2023-04-03T10:39:16;6.68;;;2.40;;
20828;SDS011;10575;50.124;8.582;2023-04-03T10:47:17;3.60;;;2.60;;
20828;SDS011;10575;50.124;8.582;2023-04-03T10:56:55;8.10;;;3.08;;
20828;SDS011;10575;50.124;8.582;2023-04-03T10:59:13;7.50;;;3.22;;
20828;SDS011;10575;50.124;8.582;2023-04-03T11:01:52;3.88;;;3.03;;
20828;SDS011;10575;50.124;8.582;2023-04-03T11:04:21;6.60;;;3.60;;
20828;SDS011;10575;50.124;8.582;2023-04-03T11:06:56;5.88;;;3.20;;
20828;SDS011;10575;50.124;8.582;2023-04-03T11:09:42;5.78;;;3.00;;
20828;SDS011;10575;50.124;8.582;2023-04-03T11:12:13;6.72;;;3.22;;
20828;SDS011;10575;50.124;8.582;2023-04-03T11:14:50;6.78;;;3.28;;
20828;SDS011;10575;50.124;8.582;2023-04-03T11:17:21;4.80;;;2.88;;
20828;SDS011;10575;50.124;8.582;2023-04-03T11:19:59;6.45;;;3.03;;
20828;SDS011;10575;50.124;8.582;2023-04-03T11:22:42;5.75;;;3.42;;
20828;SDS011;10575;50.124;8.582;2023-04-03T11:27:38;5.82;;;3.17;;
20828;SDS011;10575;50.124;8.582;2023-04-03T11:30:17;5.72;;;2.80;;
20828;SDS011;10575;50.124;8.582;2023-04-03T11:35:30;5.05;;;3.03;;
20828;SDS011;10575;50.124;8.582;2023-04-03T11:37:56;5.22;;;2.70;;
20828;SDS011;10575;50.124;8.582;2023-04-03T11:40:26;7.60;;;3.20;;
20828;SDS011;10575;50.124;8.582;2023-04-03T11:47:50;4.72;;;2.83;;
20828;SDS011;10575;50.124;8.582;2023-04-03T12:16:29;4.20;;;2.42;;
20828;SDS011;10575;50.124;8.582;2023-04-03T12:26:50;5.85;;;2.90;;
20828;SDS011;10575;50.124;8.582;2023-04-03T12:32:04;4.13;;;2.80;;
20828;SDS011;10575;50.124;8.582;2023-04-03T12:39:54;4.30;;;2.50;;
20828;SDS011;10575;50.124;8.582;2023-04-03T12:45:26;6.05;;;2.80;;
20828;SDS011;10575;50.124;8.582;2023-04-03T12:47:54;6.60;;;2.85;;
20828;SDS011;10575;50.124;8.582;2023-04-03T12:50:25;3.28;;;2.65;;
20828;SDS011;10575;50.124;8.582;2023-04-03T12:53:10;6.03;;;3.35;;
20828;SDS011;10575;50.124;8.582;2023-04-03T12:55:38;5.90;;;2.70;;
20828;SDS011;10575;50.124;8.582;2023-04-03T13:01:03;7.80;;;3.28;;
20828;SDS011;10575;50.124;8.582;2023-04-03T13:03:35;5.30;;;2.78;;
20828;SDS011;10575;50.124;8.582;2023-04-03T13:06:10;4.18;;;2.72;;
20828;SDS011;10575;50.124;8.582;2023-04-03T13:11:57;2.85;;;2.33;;
20828;SDS011;10575;50.124;8.582;2023-04-03T13:14:29;5.53;;;2.65;;
20828;SDS011;10575;50.124;8.582;2023-04-03T13:19:28;8.85;;;2.80;;
20828;SDS011;10575;50.124;8.582;2023-04-03T13:22:42;6.07;;;2.67;;
20828;SDS011;10575;50.124;8.582;2023-04-03T13:24:55;5.03;;;2.65;;
20828;SDS011;10575;50.124;8.582;2023-04-03T13:27:23;4.70;;;2.88;;
20828;SDS011;10575;50.124;8.582;2023-04-03T13:29:51;8.55;;;2.85;;
20828;SDS011;10575;50.124;8.582;2023-04-03T13:32:19;7.10;;;2.92;;
20828;SDS011;10575;50.124;8.582;2023-04-03T13:34:48;5.53;;;2.92;;
20828;SDS011;10575;50.124;8.582;2023-04-03T13:42:33;4.70;;;2.83;;
20828;SDS011;10575;50.124;8.582;2023-04-03T13:45:16;5.97;;;3.05;;
20828;SDS011;10575;50.124;8.582;2023-04-03T13:47:45;6.18;;;2.75;;
20828;SDS011;10575;50.124;8.582;2023-04-03T13:52:48;7.20;;;3.22;;
20828;SDS011;10575;50.124;8.582;2023-04-03T13:57:51;6.57;;;3.00;;
20828;SDS011;10575;50.124;8.582;2023-04-03T14:03:00;6.72;;;3.28;;
20828;SDS011;10575;50.124;8.582;2023-04-03T14:05:26;5.18;;;2.70;;
20828;SDS011;10575;50.124;8.582;2023-04-03T14:07:52;13.00;;;3.20;;
20828;SDS011;10575;50.124;8.582;2023-04-03T14:10:19;5.05;;;3.47;;
20828;SDS011;10575;50.124;8.582;2023-04-03T14:12:45;7.80;;;2.60;;
20828;SDS011;10575;50.124;8.582;2023-04-03T14:15:22;5.00;;;2.80;;
20828;SDS011;10575;50.124;8.582;2023-04-03T14:17:51;3.40;;;2.15;;
20828;SDS011;10575;50.124;8.582;2023-04-03T14:20:18;4.00;;;2.47;;
20828;SDS011;10575;50.124;8.582;2023-04-03T14:22:46;4.97;;;2.65;;
20828;SDS011;10575;50.124;8.582;2023-04-03T14:25:13;4.93;;;2.58;;
20828;SDS011;10575;50.124;8.582;2023-04-03T14:27:41;4.43;;;2.38;;
20828;SDS011;10575;50.124;8.582;2023-04-03T14:30:11;5.95;;;2.58;;
20828;SDS011;10575;50.124;8.582;2023-04-03T14:32:40;3.85;;;2.13;;
20828;SDS011;10575;50.124;8.582;2023-04-03T14:35:06;5.20;;;2.20;;
20828;SDS011;10575;50.124;8.582;2023-04-03T14:37:32;3.92;;;2.40;;
20828;SDS011;10575;50.124;8.582;2023-04-03T14:39:59;2.97;;;1.77;;
20828;SDS011;10575;50.124;8.582;2023-04-03T14:42:27;5.00;;;1.83;;
20828;SDS011;10575;50.124;8.582;2023-04-03T14:44:55;7.43;;;2.22;;
20828;SDS011;10575;50.124;8.582;2023-04-03T14:47:26;5.60;;;2.17;;
20828;SDS011;10575;50.124;8.582;2023-04-03T14:49:54;4.22;;;1.88;;
20828;SDS011;10575;50.124;8.582;2023-04-03T14:52:21;8.05;;;1.80;;
20828;SDS011;10575;50.124;8.582;2023-04-03T14:54:50;2.72;;;1.63;;
20828;SDS011;10575;50.124;8.582;2023-04-03T14:57:17;3.90;;;2.00;;
20828;SDS011;10575;50.124;8.582;2023-04-03T14:59:44;2.47;;;1.65;;
20828;SDS011;10575;50.124;8.582;2023-04-03T15:02:30;1.95;;;1.50;;
20828;SDS011;10575;50.124;8.582;2023-04-03T15:04:57;5.80;;;2.00;;
20828;SDS011;10575;50.124;8.582;2023-04-03T15:07:25;4.25;;;1.75;;
20828;SDS011;10575;50.124;8.582;2023-04-03T15:09:53;3.65;;;1.60;;
20828;SDS011;10575;50.124;8.582;2023-04-03T15:12:21;3.58;;;1.58;;
20828;SDS011;10575;50.124;8.582;2023-04-03T15:14:47;4.45;;;1.90;;
20828;SDS011;10575;50.124;8.582;2023-04-03T15:17:16;4.10;;;1.90;;
20828;SDS011;10575;50.124;8.582;2023-04-03T15:19:45;3.22;;;1.92;;
20828;SDS011;10575;50.124;8.582;2023-04-03T15:22:17;3.80;;;1.40;;
20828;SDS011;10575;50.124;8.582;2023-04-03T15:24:44;1.75;;;1.40;;
20828;SDS011;10575;50.124;8.582;2023-04-03T15:27:10;3.53;;;1.60;;
20828;SDS011;10575;50.124;8.582;2023-04-03T15:29:39;3.53;;;1.52;;
20828;SDS011;10575;50.124;8.582;2023-04-03T15:32:06;5.38;;;1.40;;
20828;SDS011;10575;50.124;8.582;2023-04-03T15:34:34;4.60;;;1.70;;
20828;SDS011;10575;50.124;8.582;2023-04-03T15:37:00;5.63;;;1.73;;
20828;SDS011;10575;50.124;8.582;2023-04-03T15:39:26;1.55;;;1.30;;
20828;SDS011;10575;50.124;8.582;2023-04-03T15:41:51;2.65;;;1.33;;
20828;SDS011;10575;50.124;8.582;2023-04-03T15:44:18;3.50;;;1.40;;
20828;SDS011;10575;50.124;8.582;2023-04-03T15:46:44;5.32;;;1.60;;
20828;SDS011;10575;50.124;8.582;2023-04-03T15:49:11;4.72;;;1.60;;
20828;SDS011;10575;50.124;8.582;2023-04-03T15:51:37;4.95;;;1.50;;
20828;SDS011;10575;50.124;8.582;2023-04-03T15:54:03;8.98;;;1.80;;
20828;SDS011;10575;50.124;8.582;2023-04-03T15:56:29;5.80;;;2.00;;
20828;SDS011;10575;50.124;8.582;2023-04-03T15:58:55;3.17;;;1.77;;
20828;SDS011;10575;50.124;8.582;2023-04-03T16:01:20;3.72;;;1.50;;
20828;SDS011;10575;50.124;8.582;2023-04-03T16:03:46;3.97;;;1.70;;
20828;SDS011;10575;50.124;8.582;2023-04-03T16:06:13;2.53;;;1.65;;
20828;SDS011;10575;50.124;8.582;2023-04-03T16:08:39;3.95;;;1.38;;
20828;SDS011;10575;50.124;8.582;2023-04-03T16:11:05;3.80;;;1.30;;
20828;SDS011;10575;50.124;8.582;2023-04-03T16:13:31;3.55;;;1.58;;
20828;SDS011;10575;50.124;8.582;2023-04-03T16:15:57;3.38;;;1.83;;
20828;SDS011;10575;50.124;8.582;2023-04-03T16:18:23;2.60;;;1.38;;
20828;SDS011;10575;50.124;8.582;2023-04-03T16:20:49;4.78;;;1.63;;
20828;SDS011;10575;50.124;8.582;2023-04-03T16:23:14;2.28;;;1.42;;
20828;SDS011;10575;50.124;8.582;2023-04-03T16:25:40;3.72;;;1.40;;
20828;SDS011;10575;50.124;8.582;2023-04-03T16:28:10;1.98;;;1.27;;
20828;SDS011;10575;50.124;8.582;2023-04-03T16:30:37;6.82;;;1.55;;
20828;SDS011;10575;50.124;8.582;2023-04-03T16:33:03;3.78;;;1.80;;
20828;SDS011;10575;50.124;8.582;2023-04-03T16:35:29;4.68;;;1.75;;
20828;SDS011;10575;50.124;8.582;2023-04-03T16:37:55;7.32;;;1.60;;
20828;SDS011;10575;50.124;8.582;2023-04-03T16:40:20;3.08;;;1.50;;
20828;SDS011;10575;50.124;8.582;2023-04-03T16:42:46;5.10;;;1.70;;
20828;SDS011;10575;50.124;8.582;2023-04-03T16:45:11;5.05;;;2.00;;
20828;SDS011;10575;50.124;8.582;2023-04-03T16:47:37;5.78;;;1.88;;
20828;SDS011;10575;50.124;8.582;2023-04-03T16:50:02;2.55;;;1.20;;